Time;durP1;ratioP1;P1;durP2;ratioP2;P2;SDS_P1;SDS_P2;PMS_P1;PMS_P2;Temp;Humidity;BMP_temperature;BMP_pressure;BME280_temperature;BME280_humidity;BME280_pressure;Samples;Min_cycle;Max_cycle;Signal;HPM_P1;HPM_P2
2023/05/07 00:02:04;;;;;;;13.40;8.02;;;15.40;99.90;;;;;;4877943;29;20084;-93
2023/05/07 00:04:36;;;;;;;13.10;7.85;;;15.40;99.90;;;;;;4858082;29;20132;-93
2023/05/07 00:07:17;;;;;;;11.43;7.97;;;15.40;99.90;;;;;;4843502;29;20140;-92
2023/05/07 00:09:43;;;;;;;14.02;8.35;;;15.30;99.90;;;;;;4859388;29;20132;-91
2023/05/07 00:12:09;;;;;;;13.27;8.43;;;15.30;99.90;;;;;;4844262;29;20210;-92
2023/05/07 00:14:35;;;;;;;14.50;8.25;;;15.30;99.90;;;;;;4847971;29;20045;-93
2023/05/07 00:17:06;;;;;;;14.07;8.52;;;15.30;99.90;;;;;;4877886;29;20068;-91
2023/05/07 00:19:34;;;;;;;14.80;8.23;;;15.20;99.90;;;;;;4860673;29;20083;-92
2023/05/07 00:22:15;;;;;;;13.13;8.48;;;15.30;99.90;;;;;;4875144;29;20530;-93
2023/05/07 00:24:41;;;;;;;16.25;9.05;;;15.20;99.90;;;;;;4871051;29;20075;-92
2023/05/07 00:27:09;;;;;;;14.07;8.52;;;15.20;99.90;;;;;;4859836;29;20070;-92
2023/05/07 00:29:37;;;;;;;14.18;8.27;;;15.20;99.90;;;;;;4860066;29;20041;-92
2023/05/07 00:32:02;;;;;;;13.73;8.48;;;15.10;99.90;;;;;;4861393;29;20049;-92
2023/05/07 00:34:28;;;;;;;19.52;9.45;;;15.10;99.90;;;;;;4860293;29;20454;-93
2023/05/07 00:36:55;;;;;;;12.00;8.98;;;15.10;99.90;;;;;;4859599;29;20060;-91
2023/05/07 00:39:21;;;;;;;14.10;9.40;;;15.10;99.90;;;;;;4860403;29;20515;-92
2023/05/07 00:41:47;;;;;;;14.77;9.40;;;15.10;99.90;;;;;;4875239;29;20045;-92
2023/05/07 00:44:13;;;;;;;14.27;9.32;;;15.10;99.90;;;;;;4860262;29;20523;-92
2023/05/07 00:46:41;;;;;;;19.98;10.70;;;15.10;99.90;;;;;;4860267;29;20398;-92
2023/05/07 00:49:07;;;;;;;13.68;10.32;;;15.00;99.90;;;;;;4860351;29;20057;-92
2023/05/07 00:51:39;;;;;;;16.95;9.93;;;15.00;99.90;;;;;;4861134;29;20045;-92
2023/05/07 00:54:05;;;;;;;16.88;10.73;;;15.00;99.90;;;;;;4860302;29;20056;-92
2023/05/07 00:56:31;;;;;;;15.75;10.18;;;15.00;99.90;;;;;;4859796;29;20053;-92
2023/05/07 00:59:40;;;;;;;14.77;11.10;;;14.90;99.90;;;;;;4861460;29;20045;-92
2023/05/07 01:02:06;;;;;;;18.08;10.93;;;14.90;99.90;;;;;;4860185;29;20490;-92
2023/05/07 01:04:35;;;;;;;15.95;11.25;;;14.90;99.90;;;;;;4861200;29;20041;-91
2023/05/07 01:07:10;;;;;;;17.40;10.88;;;14.90;99.90;;;;;;4860345;29;20089;-92
2023/05/07 01:09:37;;;;;;;16.75;11.45;;;14.80;99.90;;;;;;4859527;29;20041;-93
2023/05/07 01:12:25;;;;;;;14.60;10.52;;;14.90;99.90;;;;;;4859880;29;20057;-92
2023/05/07 01:14:56;;;;;;;16.17;11.23;;;14.80;99.90;;;;;;4861165;29;20093;-91
2023/05/07 01:17:41;;;;;;;18.90;11.00;;;14.80;99.90;;;;;;4846613;29;20061;-92
2023/05/07 01:20:28;;;;;;;16.42;12.23;;;14.80;99.90;;;;;;4860824;29;20057;-91
2023/05/07 01:22:55;;;;;;;17.10;11.40;;;14.80;99.90;;;;;;4859589;29;20057;-92
2023/05/07 01:25:22;;;;;;;15.70;12.05;;;14.80;99.90;;;;;;4859643;29;20182;-92
2023/05/07 01:27:50;;;;;;;16.50;11.70;;;14.80;99.90;;;;;;4859849;29;20049;-92
2023/05/07 01:30:18;;;;;;;16.75;13.13;;;14.80;99.90;;;;;;4859546;29;20046;-92
2023/05/07 01:33:37;;;;;;;20.60;13.30;;;14.80;99.90;;;;;;4867389;23;20054;-92
2023/05/07 01:36:07;;;;;;;20.75;12.80;;;14.70;99.90;;;;;;4825302;29;20054;-92
2023/05/07 01:38:33;;;;;;;19.42;12.60;;;14.70;99.90;;;;;;4856603;29;20069;-92
2023/05/07 01:41:24;;;;;;;22.08;13.40;;;14.70;99.90;;;;;;4844560;29;20056;-92
2023/05/07 01:43:52;;;;;;;19.83;13.93;;;14.70;99.90;;;;;;4860015;29;20085;-92
2023/05/07 01:46:18;;;;;;;17.55;12.60;;;14.70;99.90;;;;;;4844838;29;20122;-93
2023/05/07 01:48:45;;;;;;;16.92;13.10;;;14.60;99.90;;;;;;4862951;29;20162;-93
2023/05/07 01:51:12;;;;;;;16.13;13.07;;;14.60;99.90;;;;;;4864559;29;20045;-92
2023/05/07 01:53:38;;;;;;;20.25;13.48;;;14.60;99.90;;;;;;4863227;29;20128;-92
2023/05/07 01:56:04;;;;;;;17.67;13.38;;;14.60;99.90;;;;;;4864655;29;20049;-93
2023/05/07 01:58:30;;;;;;;16.42;13.68;;;14.60;99.90;;;;;;4864482;29;20120;-93
2023/05/07 02:00:56;;;;;;;20.58;13.60;;;14.60;99.90;;;;;;4863306;29;20049;-93
2023/05/07 02:03:22;;;;;;;16.33;13.02;;;14.50;99.90;;;;;;4863488;29;20049;-93
2023/05/07 02:05:50;;;;;;;18.20;13.43;;;14.60;99.90;;;;;;4847419;29;20052;-93
2023/05/07 02:08:30;;;;;;;19.17;14.40;;;14.50;99.90;;;;;;4867239;29;20494;-90
2023/05/07 02:10:56;;;;;;;18.90;13.70;;;14.50;99.90;;;;;;4867242;29;20050;-91
2023/05/07 02:13:30;;;;;;;19.63;13.93;;;14.40;99.90;;;;;;4862477;29;20101;-90
2023/05/07 02:15:56;;;;;;;19.27;14.80;;;14.40;99.90;;;;;;4862537;29;20073;-92
2023/05/07 02:18:21;;;;;;;20.67;14.80;;;14.40;99.90;;;;;;4862756;29;20085;-92
2023/05/07 02:20:47;;;;;;;20.10;14.38;;;14.40;99.90;;;;;;4862247;29;20046;-93
2023/05/07 02:23:13;;;;;;;22.55;15.05;;;14.40;99.90;;;;;;4862774;29;20041;-92
2023/05/07 02:25:38;;;;;;;19.25;14.73;;;14.40;99.90;;;;;;4847208;29;20144;-93
2023/05/07 02:28:04;;;;;;;19.20;14.93;;;14.30;99.90;;;;;;4862897;29;20041;-92
2023/05/07 02:30:30;;;;;;;19.27;14.88;;;14.30;99.90;;;;;;4863628;29;20061;-92
2023/05/07 02:32:55;;;;;;;23.20;16.73;;;14.30;99.90;;;;;;4878481;29;20060;-92
2023/05/07 02:35:21;;;;;;;20.30;16.20;;;14.30;99.90;;;;;;4865418;29;20049;-93
2023/05/07 02:37:47;;;;;;;19.70;16.55;;;14.20;99.90;;;;;;4882002;29;20559;-92
2023/05/07 02:40:13;;;;;;;19.65;15.32;;;14.20;99.90;;;;;;4881885;29;20055;-92
2023/05/07 02:42:39;;;;;;;23.90;16.40;;;14.20;99.90;;;;;;4865736;29;20053;-92
2023/05/07 02:45:05;;;;;;;22.05;16.10;;;14.20;99.90;;;;;;4882189;29;20557;-93
2023/05/07 02:47:46;;;;;;;19.75;16.83;;;14.10;99.90;;;;;;4868926;29;20379;-92
2023/05/07 02:50:17;;;;;;;20.73;16.35;;;14.10;99.90;;;;;;4882187;29;20053;-92
2023/05/07 02:53:02;;;;;;;23.40;16.52;;;14.10;99.90;;;;;;4881870;29;20086;-93
2023/05/07 02:55:28;;;;;;;22.77;16.95;;;14.00;99.90;;;;;;4864914;29;20049;-92
2023/05/07 02:57:53;;;;;;;22.38;16.50;;;14.00;99.90;;;;;;4881368;29;20045;-92
2023/05/07 03:00:20;;;;;;;22.52;16.85;;;14.00;99.90;;;;;;4865021;29;20049;-91
2023/05/07 03:02:46;;;;;;;23.45;17.63;;;14.00;99.90;;;;;;4881635;29;20045;-92
2023/05/07 03:05:12;;;;;;;22.20;17.70;;;13.90;99.90;;;;;;4865695;29;20045;-93
2023/05/07 03:07:38;;;;;;;21.55;17.27;;;13.90;99.90;;;;;;4864611;29;20080;-93
2023/05/07 03:10:04;;;;;;;20.13;17.02;;;13.90;99.90;;;;;;4880902;29;20083;-93
2023/05/07 03:12:31;;;;;;;22.52;17.67;;;13.90;99.90;;;;;;4865031;29;20059;-92
2023/05/07 03:14:57;;;;;;;23.33;17.48;;;13.90;99.90;;;;;;4865020;29;20052;-94
2023/05/07 03:17:24;;;;;;;20.95;16.67;;;13.90;99.90;;;;;;4881211;29;20053;-93
2023/05/07 03:19:50;;;;;;;22.42;17.25;;;13.90;99.90;;;;;;4865207;29;20048;-92
2023/05/07 03:22:18;;;;;;;25.08;18.42;;;13.80;99.90;;;;;;4864887;29;20045;-93
2023/05/07 03:24:44;;;;;;;23.15;18.20;;;13.80;99.90;;;;;;4860126;29;20094;-92
2023/05/07 03:27:10;;;;;;;23.25;18.55;;;13.90;99.90;;;;;;4881639;29;20447;-92
2023/05/07 03:29:36;;;;;;;22.17;18.08;;;13.80;99.90;;;;;;4881347;29;20509;-93
2023/05/07 03:32:02;;;;;;;25.55;19.60;;;13.80;99.90;;;;;;4879798;29;20049;-92
2023/05/07 03:34:55;;;;;;;24.88;20.27;;;13.80;99.90;;;;;;4865034;29;20093;-92
2023/05/07 03:40:12;;;;;;;22.85;19.33;;;13.70;99.90;;;;;;4877235;29;19924;-92
2023/05/07 03:42:38;;;;;;;26.58;19.00;;;13.70;99.90;;;;;;4864476;29;20037;-92
2023/05/07 03:45:08;;;;;;;27.80;21.17;;;13.70;99.90;;;;;;4863548;29;20541;-92
2023/05/07 03:47:34;;;;;;;26.38;20.95;;;13.60;99.90;;;;;;4879669;29;20053;-91
2023/05/07 03:50:00;;;;;;;31.13;21.63;;;13.70;99.90;;;;;;4864223;29;20383;-92
2023/05/07 03:52:26;;;;;;;28.58;21.10;;;13.70;99.90;;;;;;4880823;29;20160;-91
2023/05/07 03:54:55;;;;;;;27.58;21.50;;;13.70;99.90;;;;;;4883801;29;20075;-90
2023/05/07 03:57:21;;;;;;;28.60;21.80;;;13.60;99.90;;;;;;4874643;29;20052;-91
2023/05/07 03:59:49;;;;;;;27.20;21.58;;;13.60;99.90;;;;;;4876118;29;20108;-92
2023/05/07 04:02:17;;;;;;;28.83;21.77;;;13.60;99.90;;;;;;4871187;29;20041;-92
2023/05/07 04:04:42;;;;;;;27.02;22.25;;;13.60;99.90;;;;;;4854616;29;20041;-91
2023/05/07 04:07:08;;;;;;;30.15;22.40;;;13.60;99.90;;;;;;4858874;29;20056;-92
2023/05/07 04:09:34;;;;;;;30.45;22.55;;;13.50;99.90;;;;;;4864815;29;20042;-92
2023/05/07 04:12:01;;;;;;;29.83;23.05;;;13.60;99.90;;;;;;4850566;29;20100;-91
2023/05/07 04:14:26;;;;;;;27.90;22.38;;;13.60;99.90;;;;;;4859130;29;20056;-92
2023/05/07 04:16:52;;;;;;;30.52;22.63;;;13.50;99.90;;;;;;4875005;29;20049;-91
2023/05/07 04:19:18;;;;;;;30.58;23.70;;;13.50;99.90;;;;;;4859814;29;20557;-92
2023/05/07 04:21:44;;;;;;;31.55;23.75;;;13.50;99.90;;;;;;4854464;29;20057;-92
2023/05/07 04:24:09;;;;;;;30.63;22.80;;;13.40;99.90;;;;;;4875613;29;20048;-91
2023/05/07 04:26:35;;;;;;;29.83;22.35;;;13.40;99.90;;;;;;4855482;29;20037;-91
2023/05/07 04:29:01;;;;;;;30.15;23.23;;;13.40;99.90;;;;;;4864096;29;20040;-92
2023/05/07 04:31:27;;;;;;;27.88;22.42;;;13.40;99.90;;;;;;4881265;29;20045;-93
2023/05/07 04:33:52;;;;;;;29.48;22.90;;;13.40;99.90;;;;;;4879183;29;20084;-91
2023/05/07 04:36:18;;;;;;;29.42;23.02;;;13.40;99.90;;;;;;4868517;29;20111;-92
2023/05/07 04:38:44;;;;;;;33.20;23.42;;;13.30;99.90;;;;;;4899371;29;20048;-92
2023/05/07 04:41:10;;;;;;;29.42;22.90;;;13.40;99.90;;;;;;4888564;29;20137;-90
2023/05/07 04:43:35;;;;;;;30.45;22.90;;;13.30;99.90;;;;;;4880403;29;20505;-92
2023/05/07 04:46:01;;;;;;;30.83;24.17;;;13.30;99.90;;;;;;4863638;29;20049;-93
2023/05/07 04:48:29;;;;;;;27.75;22.45;;;13.30;99.90;;;;;;4863736;29;20517;-93
2023/05/07 04:50:55;;;;;;;30.20;22.10;;;13.20;99.90;;;;;;4863991;29;20049;-92
2023/05/07 04:53:30;;;;;;;29.52;22.50;;;13.20;99.90;;;;;;4863934;29;20204;-93
2023/05/07 04:55:56;;;;;;;30.40;23.88;;;13.20;99.90;;;;;;4880074;29;20048;-92
2023/05/07 04:58:22;;;;;;;27.55;21.98;;;13.20;99.90;;;;;;4863597;29;20056;-93
2023/05/07 05:00:48;;;;;;;29.10;21.85;;;13.20;99.90;;;;;;4865385;29;20132;-93
2023/05/07 05:03:14;;;;;;;32.20;23.85;;;13.20;99.90;;;;;;4863979;29;20106;-91
2023/05/07 05:05:40;;;;;;;28.17;22.20;;;13.20;99.90;;;;;;4883244;29;20055;-92
2023/05/07 05:08:08;;;;;;;29.02;22.63;;;13.20;99.90;;;;;;4898783;29;20052;-92
2023/05/07 05:10:34;;;;;;;31.70;23.65;;;13.20;99.90;;;;;;4893825;29;20047;-92
2023/05/07 05:13:01;;;;;;;30.13;23.20;;;13.10;99.90;;;;;;4866612;29;20045;-92
2023/05/07 05:15:27;;;;;;;29.40;21.80;;;13.20;99.90;;;;;;4859258;29;20044;-92
2023/05/07 05:17:56;;;;;;;27.48;21.40;;;13.10;99.90;;;;;;4863248;29;20475;-90
2023/05/07 05:20:21;;;;;;;28.60;22.48;;;13.20;99.90;;;;;;4879488;29;20549;-92
2023/05/07 05:22:47;;;;;;;29.95;22.30;;;13.10;99.90;;;;;;4874978;29;20405;-92
2023/05/07 05:25:13;;;;;;;29.77;21.70;;;13.10;99.90;;;;;;4867403;29;20509;-92
2023/05/07 05:27:40;;;;;;;28.70;22.08;;;13.10;99.90;;;;;;4881576;29;20414;-92
2023/05/07 05:30:06;;;;;;;27.95;22.35;;;13.10;99.90;;;;;;4866072;29;20057;-92
2023/05/07 05:32:32;;;;;;;27.67;22.27;;;13.10;99.90;;;;;;4880156;29;20057;-91
2023/05/07 05:34:57;;;;;;;27.25;21.58;;;13.10;99.90;;;;;;4881415;29;20086;-91
2023/05/07 05:37:23;;;;;;;26.95;20.77;;;13.10;99.90;;;;;;4867295;29;20080;-90
2023/05/07 05:39:49;;;;;;;24.58;21.05;;;13.10;99.90;;;;;;4871637;29;20037;-90
2023/05/07 05:42:14;;;;;;;24.98;20.65;;;13.10;99.90;;;;;;4865880;29;20513;-91
2023/05/07 05:44:40;;;;;;;25.63;20.98;;;13.10;99.90;;;;;;4865290;29;20131;-89
2023/05/07 05:47:05;;;;;;;27.88;20.92;;;13.10;99.90;;;;;;4892315;29;20414;-89
2023/05/07 05:49:31;;;;;;;27.55;21.27;;;13.10;99.90;;;;;;4865392;29;20052;-90
2023/05/07 05:51:57;;;;;;;28.15;22.13;;;13.00;99.90;;;;;;4881587;29;20044;-89
2023/05/07 05:54:22;;;;;;;25.65;20.30;;;13.00;99.90;;;;;;4865175;29;20054;-88
2023/05/07 05:56:49;;;;;;;25.58;20.75;;;13.10;99.90;;;;;;4890450;29;20055;-88
2023/05/07 05:59:14;;;;;;;25.30;20.35;;;13.00;99.90;;;;;;4882640;29;20049;-86
2023/05/07 06:01:40;;;;;;;23.20;19.65;;;13.00;99.90;;;;;;4870680;29;20096;-86
2023/05/07 06:04:06;;;;;;;24.80;20.60;;;13.00;99.90;;;;;;4865493;29;20041;-92
2023/05/07 06:06:32;;;;;;;25.50;20.08;;;13.00;99.90;;;;;;4866142;29;20082;-91
2023/05/07 06:08:57;;;;;;;27.02;19.80;;;13.00;99.90;;;;;;4865740;29;20048;-92
2023/05/07 06:11:23;;;;;;;27.27;21.27;;;13.00;99.90;;;;;;4882230;29;20045;-92
2023/05/07 06:13:49;;;;;;;25.17;20.15;;;13.00;99.90;;;;;;4865929;29;20042;-92
2023/05/07 06:16:17;;;;;;;25.17;20.42;;;13.00;99.90;;;;;;4882932;29;20052;-93
2023/05/07 06:18:42;;;;;;;22.83;18.75;;;13.00;99.90;;;;;;4865874;29;20052;-92
2023/05/07 06:21:09;;;;;;;21.88;18.35;;;13.00;99.90;;;;;;4882568;29;20179;-92
2023/05/07 06:23:35;;;;;;;26.55;21.02;;;13.00;99.90;;;;;;4866115;29;20045;-92
2023/05/07 06:26:00;;;;;;;26.42;21.35;;;13.00;99.90;;;;;;4865939;29;20379;-91
2023/05/07 06:28:27;;;;;;;25.42;20.05;;;12.90;99.90;;;;;;4865910;29;20052;-92
2023/05/07 06:30:53;;;;;;;26.92;20.75;;;13.00;99.90;;;;;;4866161;29;20045;-92
2023/05/07 06:33:19;;;;;;;25.42;20.17;;;12.90;99.90;;;;;;4863196;29;20509;-91
2023/05/07 06:35:45;;;;;;;25.50;20.10;;;13.00;99.90;;;;;;4880798;29;20482;-92
2023/05/07 06:38:12;;;;;;;24.80;19.65;;;12.90;99.90;;;;;;4864472;29;20063;-92
2023/05/07 06:40:37;;;;;;;26.20;20.85;;;13.00;99.90;;;;;;4864093;29;20055;-92
2023/05/07 06:43:03;;;;;;;25.33;19.77;;;12.90;99.90;;;;;;4864937;29;20048;-92
2023/05/07 06:45:28;;;;;;;24.02;19.70;;;12.90;99.90;;;;;;4881095;29;20378;-90
2023/05/07 06:47:54;;;;;;;23.63;19.83;;;12.90;99.90;;;;;;4864697;29;20541;-91
2023/05/07 06:50:20;;;;;;;26.83;21.30;;;12.90;99.90;;;;;;4864292;29;20606;-92
2023/05/07 06:52:46;;;;;;;23.88;20.02;;;12.90;99.90;;;;;;4881163;29;20084;-91
2023/05/07 06:55:14;;;;;;;26.88;20.25;;;12.90;99.90;;;;;;4880544;29;20045;-89
2023/05/07 06:57:40;;;;;;;25.40;19.65;;;12.90;99.90;;;;;;4863482;29;20135;-90
2023/05/07 07:00:08;;;;;;;25.98;20.77;;;12.90;99.90;;;;;;4863496;29;20172;-90
2023/05/07 07:02:34;;;;;;;25.73;20.88;;;12.90;99.90;;;;;;4879736;29;20056;-89
2023/05/07 07:04:59;;;;;;;24.35;20.80;;;12.90;99.90;;;;;;4863626;29;20041;-90
2023/05/07 07:07:25;;;;;;;26.00;21.25;;;12.90;99.90;;;;;;4863224;29;20446;-90
2023/05/07 07:09:51;;;;;;;25.85;20.33;;;13.00;99.90;;;;;;4863635;29;20088;-90
2023/05/07 07:12:17;;;;;;;25.50;21.10;;;12.90;99.90;;;;;;4863513;29;20041;-91
2023/05/07 07:14:42;;;;;;;27.98;21.10;;;12.90;99.90;;;;;;4863745;29;20045;-91
2023/05/07 07:17:08;;;;;;;25.67;21.02;;;13.00;99.90;;;;;;4881527;29;20068;-90
2023/05/07 07:19:33;;;;;;;24.50;19.70;;;12.90;99.90;;;;;;4880287;29;20128;-90
2023/05/07 07:21:59;;;;;;;24.90;21.48;;;13.00;99.90;;;;;;4864521;29;20450;-90
2023/05/07 07:24:25;;;;;;;25.73;20.95;;;13.00;99.90;;;;;;4863918;29;20084;-91
2023/05/07 07:26:50;;;;;;;24.00;20.38;;;13.00;99.90;;;;;;4880634;29;20049;-90
2023/05/07 07:29:16;;;;;;;27.33;20.85;;;13.00;99.90;;;;;;4880399;29;20059;-91
2023/05/07 07:31:42;;;;;;;26.05;20.70;;;13.00;99.90;;;;;;4824610;29;1147165;-90
2023/05/07 07:34:07;;;;;;;27.83;22.27;;;13.00;99.90;;;;;;4864334;29;20045;-91
2023/05/07 07:36:33;;;;;;;26.17;21.15;;;13.10;99.90;;;;;;4866225;29;20514;-90
2023/05/07 07:38:58;;;;;;;26.73;21.33;;;13.00;99.90;;;;;;4866208;29;20047;-90
2023/05/07 07:41:24;;;;;;;26.33;20.75;;;13.10;99.90;;;;;;4880268;29;20124;-91
2023/05/07 07:43:50;;;;;;;25.45;21.17;;;13.20;99.90;;;;;;4864231;29;20156;-91
2023/05/07 07:46:17;;;;;;;26.42;20.65;;;13.10;99.90;;;;;;4880586;29;20041;-91
2023/05/07 07:48:43;;;;;;;26.23;20.20;;;13.20;99.90;;;;;;4898167;29;20060;-91
2023/05/07 07:51:09;;;;;;;25.92;21.17;;;13.20;99.90;;;;;;4872170;29;20045;-91
2023/05/07 07:56:23;;;;;;;27.38;21.70;;;13.20;99.90;;;;;;4880704;29;20057;-90
2023/05/07 08:01:59;;;;;;;30.20;23.00;;;13.30;99.90;;;;;;4875275;29;20144;-90
2023/05/07 08:04:46;;;;;;;28.20;23.25;;;13.30;99.90;;;;;;4856928;29;20394;-91
2023/05/07 08:07:12;;;;;;;29.15;23.08;;;13.30;99.90;;;;;;4865927;29;20053;-88
2023/05/07 08:09:40;;;;;;;29.08;24.00;;;13.30;99.90;;;;;;4879536;29;20041;-88
2023/05/07 08:12:13;;;;;;;30.60;24.10;;;13.30;99.90;;;;;;4866893;29;20060;-89
2023/05/07 08:15:09;;;;;;;30.55;23.67;;;13.30;99.90;;;;;;4879298;29;20097;-89
2023/05/07 08:17:57;;;;;;;30.35;24.08;;;13.40;99.90;;;;;;4863603;29;20085;-87
2023/05/07 08:20:23;;;;;;;31.48;23.15;;;13.40;99.90;;;;;;4879318;29;20053;-88
2023/05/07 08:23:08;;;;;;;26.63;21.67;;;13.40;99.90;;;;;;4894694;29;20040;-87
2023/05/07 08:25:37;;;;;;;29.38;24.70;;;13.40;99.90;;;;;;4856897;29;20053;-87
2023/05/07 08:28:03;;;;;;;30.58;24.63;;;13.40;99.90;;;;;;4863255;29;20469;-88
2023/05/07 08:30:32;;;;;;;29.50;23.23;;;13.50;99.90;;;;;;4881656;29;20076;-90
2023/05/07 08:32:58;;;;;;;29.23;24.38;;;13.50;99.90;;;;;;4881821;29;20106;-88
2023/05/07 08:35:25;;;;;;;27.45;23.33;;;13.60;99.90;;;;;;4863138;29;20049;-87
2023/05/07 08:38:13;;;;;;;30.58;24.33;;;13.70;99.90;;;;;;4897295;29;20049;-89
2023/05/07 08:40:42;;;;;;;32.15;23.92;;;13.60;99.90;;;;;;4865015;29;20049;-89
2023/05/07 08:43:14;;;;;;;29.10;23.27;;;13.70;99.90;;;;;;4881036;29;20055;-88
2023/05/07 08:45:41;;;;;;;30.98;25.13;;;13.70;99.90;;;;;;4867599;29;20056;-88
2023/05/07 08:48:15;;;;;;;31.58;24.15;;;13.70;99.90;;;;;;4863445;29;20061;-89
2023/05/07 08:51:09;;;;;;;31.27;24.35;;;13.70;99.90;;;;;;4847691;29;20534;-88
2023/05/07 09:00:40;;;;;;;28.02;22.70;;;13.80;99.90;;;;;;4855295;29;20132;-89
2023/05/07 09:03:38;;;;;;;28.08;23.60;;;13.90;99.90;;;;;;4854481;29;20081;-91
2023/05/07 09:07:05;;;;;;;31.25;23.73;;;13.90;99.90;;;;;;4850447;29;20646;-90
2023/05/07 09:09:33;;;;;;;28.50;23.45;;;14.00;99.90;;;;;;4847488;29;20059;-90
2023/05/07 09:11:59;;;;;;;30.25;24.67;;;14.10;99.90;;;;;;4873408;29;20049;-88
2023/05/07 09:14:25;;;;;;;30.70;24.60;;;14.10;99.90;;;;;;4863318;29;20041;-86
2023/05/07 09:16:53;;;;;;;32.58;25.98;;;14.10;99.90;;;;;;4866143;29;20056;-88
2023/05/07 09:19:23;;;;;;;33.28;25.48;;;14.20;99.90;;;;;;4883298;29;20558;-88
2023/05/07 09:21:49;;;;;;;29.58;24.00;;;14.20;99.90;;;;;;4872041;29;20553;-87
2023/05/07 09:24:17;;;;;;;31.52;25.35;;;14.20;99.90;;;;;;4882643;29;20049;-88
2023/05/07 09:26:43;;;;;;;32.40;25.08;;;14.30;99.90;;;;;;4882674;29;20422;-90
2023/05/07 09:29:10;;;;;;;27.15;23.42;;;14.40;99.90;;;;;;4866768;29;20049;-90
2023/05/07 09:31:39;;;;;;;30.33;23.25;;;14.50;99.90;;;;;;4867054;29;20076;-89
2023/05/07 09:34:05;;;;;;;30.38;24.08;;;14.50;99.90;;;;;;4887538;29;20541;-88
2023/05/07 09:36:32;;;;;;;27.15;23.13;;;14.60;99.90;;;;;;4885700;29;20093;-89
2023/05/07 09:39:00;;;;;;;26.40;22.25;;;14.70;99.90;;;;;;4882850;29;20041;-93
2023/05/07 09:41:26;;;;;;;27.83;23.08;;;14.70;99.90;;;;;;4865876;29;20045;-89
2023/05/07 09:43:55;;;;;;;27.98;23.52;;;14.70;99.90;;;;;;4864585;29;20058;-89
2023/05/07 09:46:34;;;;;;;28.25;23.05;;;14.80;99.90;;;;;;4866028;29;20056;-89
2023/05/07 09:49:02;;;;;;;25.50;22.70;;;14.80;99.90;;;;;;4865904;29;20056;-88
2023/05/07 09:51:41;;;;;;;25.83;22.50;;;14.80;99.90;;;;;;4882510;29;20073;-88
2023/05/07 09:54:07;;;;;;;27.45;23.20;;;14.90;99.90;;;;;;4865670;29;20081;-89
2023/05/07 09:56:34;;;;;;;27.17;22.90;;;15.00;99.90;;;;;;4881454;29;20049;-89
2023/05/07 09:59:00;;;;;;;27.65;23.20;;;15.00;99.90;;;;;;4865939;29;20470;-88
2023/05/07 10:01:27;;;;;;;26.58;22.40;;;15.10;99.90;;;;;;4865790;29;20048;-89
2023/05/07 10:03:53;;;;;;;27.38;22.50;;;15.20;99.90;;;;;;4864904;29;20057;-90
2023/05/07 10:06:24;;;;;;;25.88;22.45;;;15.30;99.90;;;;;;4882044;29;20466;-89
2023/05/07 10:08:50;;;;;;;25.60;21.55;;;15.30;99.90;;;;;;4865067;29;20041;-90
2023/05/07 10:11:16;;;;;;;27.02;22.90;;;15.40;99.90;;;;;;4864895;29;20098;-89
2023/05/07 10:13:43;;;;;;;26.27;22.88;;;15.40;99.90;;;;;;4881668;29;20068;-90
2023/05/07 10:16:09;;;;;;;25.30;21.75;;;15.50;99.90;;;;;;4865413;29;20112;-91
2023/05/07 10:18:34;;;;;;;27.08;22.48;;;15.60;99.90;;;;;;4881065;29;20106;-89
2023/05/07 10:21:21;;;;;;;25.85;21.35;;;15.70;99.90;;;;;;4865406;29;20052;-90
2023/05/07 10:23:57;;;;;;;24.88;22.17;;;15.80;99.90;;;;;;4864610;29;20045;-89
2023/05/07 10:26:24;;;;;;;25.30;21.23;;;15.80;99.90;;;;;;4881478;29;20141;-91
2023/05/07 10:28:59;;;;;;;23.88;21.23;;;15.90;99.90;;;;;;4865197;29;20478;-89
2023/05/07 10:32:10;;;;;;;23.10;20.15;;;15.90;99.90;;;;;;4881209;29;20137;-90
2023/05/07 10:34:40;;;;;;;23.67;19.98;;;16.00;99.90;;;;;;4865103;29;20061;-90
2023/05/07 10:37:07;;;;;;;23.13;20.30;;;16.10;99.90;;;;;;4881899;29;20041;-89
2023/05/07 10:39:32;;;;;;;23.00;19.45;;;16.10;99.90;;;;;;4880975;29;20053;-89
2023/05/07 10:42:08;;;;;;;22.52;19.73;;;16.20;99.90;;;;;;4881665;29;20059;-90
2023/05/07 10:44:35;;;;;;;23.08;19.92;;;16.20;99.90;;;;;;4881460;29;20124;-89
2023/05/07 10:47:11;;;;;;;23.30;20.45;;;16.30;99.90;;;;;;4864106;29;20053;-89
2023/05/07 10:50:05;;;;;;;22.10;19.55;;;16.40;99.90;;;;;;4881091;29;20049;-89
2023/05/07 10:52:31;;;;;;;25.48;19.67;;;16.40;99.90;;;;;;4859475;29;20093;-90
2023/05/07 10:55:17;;;;;;;21.55;19.27;;;16.50;99.90;;;;;;4864497;29;20049;-91
2023/05/07 10:57:43;;;;;;;22.23;18.70;;;16.50;99.90;;;;;;4864940;29;20505;-90
2023/05/07 11:00:23;;;;;;;22.50;18.77;;;16.60;99.90;;;;;;4880423;29;20405;-89
2023/05/07 11:03:01;;;;;;;22.52;19.08;;;16.70;99.90;;;;;;4864393;29;20061;-90
2023/05/07 11:05:31;;;;;;;20.17;18.05;;;16.80;99.90;;;;;;4881165;29;20053;-89
2023/05/07 11:08:00;;;;;;;21.00;18.67;;;16.80;99.90;;;;;;4863795;29;20383;-89
2023/05/07 11:10:47;;;;;;;20.70;18.42;;;16.90;99.90;;;;;;4881037;29;20049;-89
2023/05/07 11:13:14;;;;;;;21.48;17.55;;;16.90;99.90;;;;;;4864444;29;20060;-89
2023/05/07 11:15:45;;;;;;;22.13;18.40;;;17.00;99.90;;;;;;4880141;29;20048;-88
2023/05/07 11:18:13;;;;;;;20.88;17.88;;;17.10;99.90;;;;;;4864596;29;20120;-89
2023/05/07 11:20:48;;;;;;;20.23;17.95;;;17.10;99.90;;;;;;4879245;29;20048;-90
2023/05/07 11:23:47;;;;;;;21.33;17.98;;;17.20;99.90;;;;;;4880705;29;20041;-88
2023/05/07 11:26:12;;;;;;;20.45;17.90;;;17.30;99.90;;;;;;4851633;29;20057;-90
2023/05/07 11:29:01;;;;;;;20.98;17.30;;;17.30;99.90;;;;;;4882475;29;20049;-90
2023/05/07 11:31:54;;;;;;;19.27;17.27;;;17.40;99.90;;;;;;4884216;29;20128;-90
2023/05/07 11:34:24;;;;;;;21.15;17.70;;;17.40;99.90;;;;;;4864543;29;20045;-91
2023/05/07 11:36:51;;;;;;;20.27;17.02;;;17.50;99.90;;;;;;4880281;29;20053;-92
2023/05/07 11:39:32;;;;;;;18.70;16.70;;;17.50;99.90;;;;;;4864869;29;20045;-90
2023/05/07 11:42:01;;;;;;;20.02;16.52;;;17.60;99.90;;;;;;4862439;29;20490;-94
2023/05/07 11:44:48;;;;;;;18.55;16.65;;;17.60;99.90;;;;;;4878630;29;20071;-92
2023/05/07 11:47:20;;;;;;;18.95;17.00;;;17.70;99.90;;;;;;4880744;29;20057;-91
2023/05/07 11:49:50;;;;;;;18.50;16.52;;;17.70;99.90;;;;;;4863649;29;20049;-92
2023/05/07 11:52:17;;;;;;;18.88;16.85;;;17.80;99.90;;;;;;4864416;29;20045;-92
2023/05/07 11:54:53;;;;;;;18.33;16.23;;;17.90;99.90;;;;;;4863991;29;20053;-91
2023/05/07 11:57:19;;;;;;;19.90;16.75;;;17.90;99.90;;;;;;4863525;29;20084;-91
2023/05/07 11:59:46;;;;;;;17.52;15.68;;;18.00;99.90;;;;;;4863587;29;20398;-89
2023/05/07 12:02:14;;;;;;;18.60;16.70;;;18.00;99.90;;;;;;4864223;29;20501;-91
2023/05/07 12:04:40;;;;;;;19.40;16.90;;;18.00;99.90;;;;;;4880064;29;20116;-89
2023/05/07 12:07:06;;;;;;;19.85;16.42;;;18.10;99.90;;;;;;4863338;29;20477;-91
2023/05/07 12:09:33;;;;;;;17.98;16.05;;;18.20;99.90;;;;;;4863472;29;20140;-91
2023/05/07 12:12:04;;;;;;;18.42;16.40;;;18.20;99.90;;;;;;4863639;29;20072;-92
2023/05/07 12:14:30;;;;;;;19.88;16.42;;;18.30;99.90;;;;;;4866178;29;20040;-88
2023/05/07 12:16:56;;;;;;;18.77;16.25;;;18.40;99.90;;;;;;4865823;29;20536;-88
2023/05/07 12:19:22;;;;;;;20.77;17.20;;;18.40;99.90;;;;;;4885379;29;20037;-88
2023/05/07 12:21:48;;;;;;;19.45;17.38;;;18.40;99.90;;;;;;4889051;29;20394;-91
2023/05/07 12:24:14;;;;;;;18.45;16.35;;;18.50;99.90;;;;;;4879578;29;20493;-90
2023/05/07 12:26:40;;;;;;;19.23;17.17;;;18.50;99.90;;;;;;4883187;29;20048;-90
2023/05/07 12:29:06;;;;;;;20.13;17.63;;;18.60;99.90;;;;;;4881489;29;20041;-89
2023/05/07 12:31:32;;;;;;;18.70;16.75;;;18.60;99.90;;;;;;4878726;29;20052;-90
2023/05/07 12:33:58;;;;;;;18.67;16.27;;;18.60;99.90;;;;;;4870015;29;20076;-91
2023/05/07 12:36:24;;;;;;;19.10;16.45;;;18.70;99.90;;;;;;4863891;29;20386;-89
2023/05/07 12:38:50;;;;;;;19.05;16.88;;;18.70;99.90;;;;;;4877039;29;20041;-89
2023/05/07 12:41:16;;;;;;;18.30;16.33;;;18.80;99.80;;;;;;4880240;29;20082;-90
2023/05/07 12:43:45;;;;;;;18.80;16.60;;;18.80;99.50;;;;;;4862844;29;20136;-89
2023/05/07 12:46:13;;;;;;;19.30;17.30;;;18.80;99.50;;;;;;4879583;29;20409;-87
2023/05/07 12:48:43;;;;;;;18.38;16.45;;;18.90;99.80;;;;;;4879759;29;20052;-88
2023/05/07 12:51:11;;;;;;;17.65;15.77;;;19.00;99.70;;;;;;4875846;29;20409;-90
2023/05/07 12:53:42;;;;;;;18.55;16.65;;;19.00;99.40;;;;;;4883449;29;20052;-90
2023/05/07 12:56:07;;;;;;;18.58;15.93;;;19.00;99.10;;;;;;4900293;29;20056;-90